Time;durP1;ratioP1;P1;durP2;ratioP2;P2;SDS_P1;SDS_P2;PMS_P1;PMS_P2;Temp;Humidity;BMP_temperature;BMP_pressure;BME280_temperature;BME280_humidity;BME280_pressure;Samples;Min_cycle;Max_cycle;Signal;HPM_P1;HPM_P2
2024/04/17 00:01:38;;;;;;;0.60;0.20;;;7.70;52.50;;;;;;5527903;26;20866;-54
2024/04/17 00:04:04;;;;;;;0.30;0.10;;;7.60;31.20;;;;;;5528482;26;20491;-52
2024/04/17 00:06:32;;;;;;;0.30;0.10;;;7.50;36.70;;;;;;5528464;26;20771;-53
2024/04/17 00:08:58;;;;;;;0.60;0.10;;;7.30;35.70;;;;;;5527892;26;20525;-51
2024/04/17 00:11:27;;;;;;;0.30;0.10;;;7.40;70.30;;;;;;5527644;26;20476;-49
2024/04/17 00:13:53;;;;;;;0.33;0.10;;;7.30;79.80;;;;;;5528224;26;20513;-53
2024/04/17 00:16:24;;;;;;;0.30;0.10;;;7.30;48.40;;;;;;5531951;26;20571;-51
2024/04/17 00:18:50;;;;;;;0.30;0.10;;;7.30;99.90;;;;;;5532201;26;20445;-53
2024/04/17 00:21:19;;;;;;;0.20;0.10;;;7.20;99.90;;;;;;5532136;26;20464;-52
2024/04/17 00:23:45;;;;;;;0.30;0.10;;;7.20;99.90;;;;;;5531728;26;20460;-53
2024/04/17 00:26:14;;;;;;;0.40;0.20;;;7.20;99.90;;;;;;5531688;26;20590;-52
2024/04/17 00:28:40;;;;;;;0.40;0.20;;;7.20;99.90;;;;;;5531936;26;20452;-53
2024/04/17 00:31:08;;;;;;;0.40;0.10;;;7.20;99.90;;;;;;5532168;26;20441;-55
2024/04/17 00:33:37;;;;;;;0.40;0.10;;;7.20;99.90;;;;;;5530222;26;20812;-54
2024/04/17 00:36:06;;;;;;;0.20;0.10;;;7.10;99.90;;;;;;5478404;26;20476;-51
2024/04/17 00:38:32;;;;;;;0.30;0.10;;;7.10;99.90;;;;;;5531640;26;20465;-50
2024/04/17 00:41:01;;;;;;;2.83;0.10;;;7.20;99.90;;;;;;5501202;26;21002;-51
2024/04/17 00:43:27;;;;;;;0.30;0.10;;;7.20;99.90;;;;;;5524163;26;20464;-50
2024/04/17 00:45:56;;;;;;;0.87;0.17;;;7.20;99.90;;;;;;5531578;26;20558;-48
2024/04/17 00:48:22;;;;;;;0.40;0.10;;;7.20;99.90;;;;;;5531782;26;20515;-50
2024/04/17 00:50:57;;;;;;;0.40;0.20;;;7.20;99.90;;;;;;5531829;26;20520;-48
2024/04/17 00:53:29;;;;;;;0.40;0.20;;;7.20;99.90;;;;;;5530837;26;20711;-48
2024/04/17 00:55:56;;;;;;;0.30;0.10;;;7.20;99.90;;;;;;5530889;26;20516;-48
2024/04/17 00:58:25;;;;;;;0.40;0.10;;;7.20;99.90;;;;;;5531390;26;20444;-50
2024/04/17 01:00:51;;;;;;;0.30;0.10;;;7.20;99.90;;;;;;5531125;26;20707;-53
2024/04/17 01:03:20;;;;;;;0.30;0.10;;;7.20;99.90;;;;;;5531338;26;20530;-50
2024/04/17 01:05:46;;;;;;;0.40;0.10;;;7.30;99.90;;;;;;5528886;26;21358;-54
2024/04/17 01:08:17;;;;;;;0.50;0.23;;;7.10;99.90;;;;;;5529593;26;20464;-51
2024/04/17 01:10:44;;;;;;;0.37;0.17;;;7.20;99.90;;;;;;5504257;26;20454;-50
2024/04/17 01:13:12;;;;;;;0.60;0.10;;;7.20;99.90;;;;;;5499787;26;20457;-47
2024/04/17 01:15:38;;;;;;;0.40;0.17;;;7.20;99.90;;;;;;5509413;26;20509;-53
2024/04/17 01:18:08;;;;;;;0.30;0.10;;;7.20;99.90;;;;;;5491804;26;20454;-48
2024/04/17 01:20:34;;;;;;;0.30;0.10;;;7.20;99.90;;;;;;5492136;26;20454;-53
2024/04/17 01:23:02;;;;;;;0.40;0.20;;;7.10;99.90;;;;;;5516600;26;20462;-54
2024/04/17 01:25:31;;;;;;;0.30;0.20;;;7.00;99.90;;;;;;5492862;26;20446;-51
2024/04/17 01:28:00;;;;;;;0.30;0.10;;;7.00;99.90;;;;;;5509671;26;20637;-49
2024/04/17 01:30:26;;;;;;;0.40;0.20;;;6.90;99.90;;;;;;5494229;26;20453;-49
2024/04/17 01:32:54;;;;;;;0.30;0.20;;;7.00;99.90;;;;;;5494587;26;20512;-48
2024/04/17 01:35:21;;;;;;;0.40;0.20;;;6.90;99.90;;;;;;5510222;26;20523;-49
2024/04/17 01:37:49;;;;;;;0.70;0.30;;;6.90;99.90;;;;;;5531071;26;20445;-49
2024/04/17 01:40:15;;;;;;;0.30;0.10;;;7.00;99.90;;;;;;5508674;26;20458;-49
2024/04/17 01:42:47;;;;;;;0.30;0.10;;;7.00;99.90;;;;;;5493648;26;20481;-47
2024/04/17 01:45:13;;;;;;;0.30;0.10;;;6.90;99.90;;;;;;5502756;26;20464;-48
2024/04/17 01:47:42;;;;;;;0.40;0.20;;;6.80;99.90;;;;;;5507418;26;20470;-47
2024/04/17 01:50:09;;;;;;;0.73;0.20;;;6.90;99.90;;;;;;5494326;26;20775;-50
2024/04/17 01:52:37;;;;;;;0.30;0.20;;;6.80;99.90;;;;;;5514497;26;20452;-50
2024/04/17 01:55:04;;;;;;;0.40;0.13;;;6.80;99.90;;;;;;5502973;26;20565;-48
2024/04/17 01:57:32;;;;;;;0.40;0.13;;;6.90;99.90;;;;;;5493277;26;20529;-52
2024/04/17 02:00:01;;;;;;;0.40;0.20;;;6.90;99.90;;;;;;5493872;26;20453;-50
2024/04/17 02:02:29;;;;;;;0.30;0.20;;;6.90;99.90;;;;;;5494046;26;20787;-50
2024/04/17 02:04:55;;;;;;;0.50;0.20;;;6.90;99.90;;;;;;5502413;26;20516;-45
2024/04/17 02:07:24;;;;;;;0.50;0.20;;;6.80;99.90;;;;;;5506656;26;20450;-44
2024/04/17 02:09:51;;;;;;;0.43;0.20;;;6.90;99.90;;;;;;5493789;26;20442;-46
2024/04/17 02:12:20;;;;;;;0.30;0.20;;;6.90;99.90;;;;;;5493474;26;20470;-50
2024/04/17 02:14:46;;;;;;;0.30;0.20;;;6.90;99.90;;;;;;5493459;26;20517;-49
2024/04/17 02:17:17;;;;;;;0.37;0.20;;;6.90;99.90;;;;;;5511204;26;20468;-50
2024/04/17 02:19:43;;;;;;;0.47;0.20;;;6.90;99.90;;;;;;5496380;26;20461;-49
2024/04/17 02:22:11;;;;;;;0.60;0.20;;;6.90;99.90;;;;;;5504281;26;20452;-46
2024/04/17 02:24:38;;;;;;;0.30;0.10;;;7.00;99.90;;;;;;5505164;26;20466;-50
2024/04/17 02:27:07;;;;;;;0.40;0.27;;;7.00;99.90;;;;;;5494498;26;20469;-47
2024/04/17 02:29:33;;;;;;;0.40;0.20;;;7.00;99.90;;;;;;5501158;26;20736;-48
2024/04/17 02:32:02;;;;;;;0.40;0.10;;;7.00;99.90;;;;;;5493404;26;20462;-50
2024/04/17 02:34:32;;;;;;;1.00;0.40;;;7.00;99.90;;;;;;5493825;26;20541;-47
2024/04/17 02:37:01;;;;;;;0.37;0.20;;;7.00;99.90;;;;;;5491606;26;20560;-52
2024/04/17 02:39:27;;;;;;;0.30;0.20;;;7.00;99.90;;;;;;5499801;26;20934;-47
2024/04/17 02:41:55;;;;;;;0.30;0.20;;;7.10;99.90;;;;;;5520961;26;20544;-50
2024/04/17 02:44:21;;;;;;;0.60;0.20;;;7.00;99.90;;;;;;5526750;26;20460;-49
2024/04/17 02:46:50;;;;;;;1.63;0.20;;;7.10;99.90;;;;;;5493122;26;20512;-51
2024/04/17 02:49:16;;;;;;;0.60;0.30;;;7.10;99.90;;;;;;5493395;26;20932;-49
2024/04/17 02:51:48;;;;;;;0.63;0.30;;;7.00;99.90;;;;;;5526463;26;20817;-47
2024/04/17 02:54:14;;;;;;;0.40;0.20;;;7.00;99.90;;;;;;5527682;26;20915;-47
2024/04/17 02:56:43;;;;;;;1.43;0.10;;;7.00;99.90;;;;;;5521288;26;20890;-50
2024/04/17 02:59:09;;;;;;;0.40;0.20;;;7.00;99.90;;;;;;5498525;26;20529;-50
2024/04/17 03:01:37;;;;;;;0.50;0.20;;;7.00;99.90;;;;;;5499731;26;20492;-53
2024/04/17 03:04:03;;;;;;;0.30;0.10;;;6.90;99.90;;;;;;5529601;26;20512;-48
2024/04/17 03:06:32;;;;;;;0.33;0.20;;;6.90;99.90;;;;;;5529711;26;20890;-50
2024/04/17 03:09:01;;;;;;;0.50;0.20;;;6.90;99.90;;;;;;5520785;26;20477;-53
2024/04/17 03:11:29;;;;;;;0.30;0.20;;;7.00;99.90;;;;;;5499277;26;20473;-53
2024/04/17 03:13:55;;;;;;;0.30;0.10;;;6.90;99.90;;;;;;5462126;26;20510;-52
2024/04/17 03:16:24;;;;;;;0.37;0.10;;;6.90;99.90;;;;;;5528838;26;20500;-50
2024/04/17 03:18:50;;;;;;;0.30;0.20;;;6.80;99.90;;;;;;5529718;26;20440;-51
2024/04/17 03:21:19;;;;;;;0.40;0.20;;;6.80;99.90;;;;;;5528118;26;20528;-52
2024/04/17 03:23:45;;;;;;;0.40;0.20;;;6.80;99.90;;;;;;5529074;26;20460;-50
2024/04/17 03:26:16;;;;;;;0.40;0.20;;;6.70;99.90;;;;;;5528649;26;20449;-49
2024/04/17 03:28:42;;;;;;;0.40;0.20;;;6.80;99.90;;;;;;5524673;26;21032;-53
2024/04/17 03:31:11;;;;;;;0.43;0.20;;;6.80;99.90;;;;;;5527836;26;20445;-49
2024/04/17 03:33:37;;;;;;;0.80;0.20;;;6.80;99.90;;;;;;5528754;26;20465;-47
2024/04/17 03:36:07;;;;;;;0.60;0.40;;;6.80;99.90;;;;;;5528760;25;20472;-48
2024/04/17 03:38:35;;;;;;;1.13;0.53;;;6.70;99.90;;;;;;5526961;26;20464;-49
2024/04/17 03:41:04;;;;;;;0.43;0.30;;;6.60;99.90;;;;;;5522025;26;20468;-49
2024/04/17 03:43:35;;;;;;;0.40;0.20;;;6.60;99.90;;;;;;5525972;26;20498;-50
2024/04/17 03:46:04;;;;;;;0.70;0.30;;;6.50;99.90;;;;;;5503404;26;20452;-50
2024/04/17 03:48:30;;;;;;;0.37;0.10;;;6.50;99.90;;;;;;5526603;26;20738;-49
2024/04/17 03:50:59;;;;;;;1.00;0.30;;;6.40;99.90;;;;;;5529944;26;20528;-47
2024/04/17 03:53:25;;;;;;;0.50;0.30;;;6.40;99.90;;;;;;5530463;26;20464;-47
2024/04/17 03:55:54;;;;;;;1.17;0.50;;;6.50;99.90;;;;;;5530922;26;20955;-47
2024/04/17 03:58:20;;;;;;;0.80;0.20;;;6.50;99.90;;;;;;5532564;26;20441;-50
2024/04/17 04:00:52;;;;;;;0.90;0.40;;;6.50;99.90;;;;;;5532413;26;20947;-51
2024/04/17 04:03:18;;;;;;;0.50;0.20;;;6.40;99.90;;;;;;5532136;25;20878;-49
2024/04/17 04:05:47;;;;;;;0.80;0.40;;;6.30;99.90;;;;;;5531408;26;20705;-49
2024/04/17 04:08:13;;;;;;;0.67;0.33;;;6.30;99.90;;;;;;5530995;25;20583;-46
2024/04/17 04:10:42;;;;;;;1.27;0.50;;;6.40;99.90;;;;;;5529803;26;20520;-50
2024/04/17 04:13:08;;;;;;;0.87;0.30;;;6.40;99.90;;;;;;5532824;26;20456;-48
2024/04/17 04:15:36;;;;;;;1.03;0.40;;;6.40;99.90;;;;;;5531634;26;20512;-50
2024/04/17 04:18:05;;;;;;;0.87;0.33;;;6.40;99.90;;;;;;5532234;26;20464;-51
2024/04/17 04:20:35;;;;;;;0.70;0.30;;;6.20;99.90;;;;;;5531814;26;20586;-52
2024/04/17 04:23:01;;;;;;;1.00;0.40;;;6.10;99.90;;;;;;5528866;26;20603;-54
2024/04/17 04:25:30;;;;;;;0.60;0.37;;;6.00;99.90;;;;;;5509833;26;20491;-51
2024/04/17 04:27:55;;;;;;;0.40;0.20;;;6.00;99.90;;;;;;5527220;26;20579;-52
2024/04/17 04:30:27;;;;;;;0.60;0.23;;;6.20;99.90;;;;;;5524407;26;20476;-54
2024/04/17 04:32:54;;;;;;;0.97;0.30;;;6.50;99.90;;;;;;5531498;26;20453;-48
2024/04/17 04:35:25;;;;;;;0.40;0.30;;;6.50;99.90;;;;;;5529897;26;20507;-52
2024/04/17 04:37:54;;;;;;;4.63;0.60;;;6.50;99.90;;;;;;5530915;26;21244;-52
2024/04/17 04:40:20;;;;;;;0.80;0.30;;;6.50;99.90;;;;;;5505342;26;20446;-55
2024/04/17 04:42:49;;;;;;;0.70;0.30;;;6.60;99.90;;;;;;5505011;26;20457;-51
2024/04/17 04:45:15;;;;;;;0.67;0.40;;;6.40;99.90;;;;;;5490231;26;20778;-53
2024/04/17 04:47:43;;;;;;;0.70;0.40;;;6.50;99.90;;;;;;5491134;26;20544;-51
2024/04/17 04:50:09;;;;;;;0.40;0.20;;;6.50;99.90;;;;;;5491286;26;20466;-48
2024/04/17 04:52:41;;;;;;;0.80;0.40;;;6.40;99.90;;;;;;5489274;26;20457;-49
2024/04/17 04:55:07;;;;;;;0.47;0.20;;;6.40;99.90;;;;;;5486464;26;20778;-50
2024/04/17 04:57:36;;;;;;;1.10;0.30;;;6.50;99.90;;;;;;5488556;26;20500;-53
2024/04/17 05:00:03;;;;;;;0.50;0.30;;;6.50;99.90;;;;;;5491462;26;20884;-50
2024/04/17 05:02:31;;;;;;;0.77;0.60;;;6.50;99.90;;;;;;5511194;26;20582;-52
2024/04/17 05:04:58;;;;;;;1.00;0.40;;;6.50;99.90;;;;;;5454396;26;20459;-51
2024/04/17 05:07:26;;;;;;;0.80;0.40;;;6.60;99.90;;;;;;5481183;26;20444;-54
2024/04/17 05:09:55;;;;;;;0.80;0.40;;;6.50;99.90;;;;;;5515695;26;20540;-50
2024/04/17 05:12:24;;;;;;;1.10;0.40;;;6.40;99.90;;;;;;5498042;26;20808;-50
2024/04/17 05:14:50;;;;;;;0.50;0.30;;;6.40;99.90;;;;;;5525854;26;20464;-54
2024/04/17 05:17:18;;;;;;;1.33;0.30;;;6.40;99.90;;;;;;5523378;26;21047;-49
2024/04/17 05:19:44;;;;;;;0.70;0.40;;;6.50;99.90;;;;;;5526380;26;20537;-49
2024/04/17 05:22:14;;;;;;;0.93;0.30;;;6.70;99.90;;;;;;5526368;26;20859;-52
2024/04/17 05:24:40;;;;;;;1.17;0.50;;;6.80;99.90;;;;;;5524822;26;20524;-52
2024/04/17 05:27:11;;;;;;;0.80;0.40;;;6.80;99.90;;;;;;5520426;26;20468;-48
2024/04/17 05:29:37;;;;;;;0.97;0.60;;;7.00;99.90;;;;;;5496075;26;20458;-54
2024/04/17 05:32:06;;;;;;;0.83;0.50;;;7.10;99.90;;;;;;5500149;26;20472;-53
2024/04/17 05:34:32;;;;;;;0.97;0.40;;;6.90;99.90;;;;;;5526407;26;20486;-49
2024/04/17 05:37:01;;;;;;;0.67;0.30;;;6.70;99.90;;;;;;5524335;26;20456;-50
2024/04/17 05:39:30;;;;;;;0.80;0.47;;;7.00;99.90;;;;;;5515990;26;20474;-55
2024/04/17 05:41:59;;;;;;;0.90;0.40;;;7.10;99.90;;;;;;5502488;26;20789;-56
2024/04/17 05:44:28;;;;;;;1.23;0.50;;;7.30;99.90;;;;;;5510589;26;20470;-51
2024/04/17 05:46:56;;;;;;;0.90;0.50;;;7.30;99.90;;;;;;5486134;26;20517;-54
2024/04/17 05:49:25;;;;;;;1.13;0.60;;;7.30;99.90;;;;;;5491250;26;20520;-47
2024/04/17 05:51:51;;;;;;;3.33;0.50;;;7.50;99.90;;;;;;5490723;26;20446;-53
2024/04/17 05:54:20;;;;;;;0.77;0.30;;;7.60;99.90;;;;;;5512762;26;20464;-55
2024/04/17 05:56:46;;;;;;;1.40;0.53;;;7.70;99.90;;;;;;5521835;26;20979;-56
2024/04/17 05:59:14;;;;;;;1.60;0.70;;;7.70;99.90;;;;;;5522409;26;20472;-52
2024/04/17 06:01:43;;;;;;;1.23;0.50;;;7.70;99.90;;;;;;5521781;26;20449;-55
2024/04/17 06:04:13;;;;;;;1.20;0.67;;;7.80;99.90;;;;;;5524825;26;20457;-55
2024/04/17 06:06:39;;;;;;;0.77;0.40;;;7.70;99.90;;;;;;5524533;26;20452;-55
2024/04/17 06:09:08;;;;;;;1.43;0.50;;;8.00;99.90;;;;;;5522462;26;20522;-55
2024/04/17 06:11:34;;;;;;;1.30;0.63;;;8.40;99.90;;;;;;5525199;25;20465;-53
2024/04/17 06:14:02;;;;;;;1.50;0.60;;;8.50;99.90;;;;;;5525783;26;20522;-54
2024/04/17 06:16:28;;;;;;;1.03;0.53;;;8.40;99.90;;;;;;5494649;26;20515;-56
2024/04/17 06:18:59;;;;;;;1.27;0.60;;;8.20;99.90;;;;;;5493497;26;20457;-57
2024/04/17 06:21:27;;;;;;;2.80;0.70;;;8.40;99.90;;;;;;5465483;26;20476;-64
2024/04/17 06:23:56;;;;;;;3.37;0.60;;;8.60;99.90;;;;;;5472291;26;20524;-57
2024/04/17 06:26:22;;;;;;;2.20;0.60;;;8.40;99.90;;;;;;5487745;26;20508;-58
2024/04/17 06:28:51;;;;;;;1.00;0.67;;;8.20;99.90;;;;;;5485587;26;20557;-56
2024/04/17 06:31:17;;;;;;;2.03;0.77;;;8.20;99.90;;;;;;5472198;26;20505;-57
2024/04/17 06:33:46;;;;;;;1.00;0.60;;;8.20;99.90;;;;;;5482655;26;20572;-58
2024/04/17 06:36:15;;;;;;;0.80;0.43;;;8.00;99.90;;;;;;5485703;26;20465;-58
2024/04/17 06:38:43;;;;;;;1.30;0.70;;;8.00;99.90;;;;;;5486628;26;21228;-58
2024/04/17 06:41:09;;;;;;;2.70;0.60;;;8.10;99.90;;;;;;5475715;26;20467;-58
2024/04/17 06:43:38;;;;;;;1.17;0.50;;;7.90;99.90;;;;;;5483088;26;20502;-58
2024/04/17 06:46:04;;;;;;;1.10;0.47;;;7.80;99.90;;;;;;5488307;26;21151;-58
2024/04/17 06:48:33;;;;;;;1.90;0.60;;;7.70;99.90;;;;;;5464209;26;20795;-59
2024/04/17 06:50:59;;;;;;;1.43;0.63;;;7.80;99.90;;;;;;5493482;26;20737;-58
2024/04/17 06:53:30;;;;;;;0.90;0.60;;;7.70;99.90;;;;;;5521752;26;20372;-59
2024/04/17 06:55:58;;;;;;;1.10;1.00;;;7.70;99.90;;;;;;5522289;26;20666;-60
2024/04/17 06:58:26;;;;;;;1.87;0.63;;;7.70;99.90;;;;;;5522530;26;20484;-59
2024/04/17 07:00:52;;;;;;;1.03;0.70;;;7.70;99.90;;;;;;5470382;26;20504;-59
2024/04/17 07:03:21;;;;;;;1.00;0.50;;;7.70;99.90;;;;;;5483092;26;20476;-60
2024/04/17 07:05:47;;;;;;;1.80;0.60;;;8.00;99.90;;;;;;5494475;26;20468;-55
2024/04/17 07:08:16;;;;;;;1.03;0.50;;;8.30;99.90;;;;;;5519286;26;20550;-57
2024/04/17 07:10:45;;;;;;;1.03;0.70;;;8.30;99.90;;;;;;5480223;26;20478;-58
2024/04/17 07:13:14;;;;;;;1.13;0.63;;;8.30;99.90;;;;;;5457176;26;20936;-59
2024/04/17 07:15:40;;;;;;;0.97;0.50;;;8.10;99.90;;;;;;5462571;26;21239;-56
2024/04/17 07:18:09;;;;;;;0.70;0.50;;;7.90;99.90;;;;;;5456903;26;20458;-51
2024/04/17 07:20:35;;;;;;;0.70;0.40;;;7.90;99.90;;;;;;5455524;26;20570;-54
2024/04/17 07:23:03;;;;;;;0.83;0.40;;;7.90;99.90;;;;;;5456913;26;20466;-55
2024/04/17 07:25:29;;;;;;;0.87;0.40;;;8.10;99.90;;;;;;5456638;26;20512;-57
2024/04/17 07:28:00;;;;;;;0.60;0.30;;;8.40;99.90;;;;;;5456557;26;20474;-51
2024/04/17 07:30:26;;;;;;;0.50;0.23;;;8.60;99.90;;;;;;5458044;26;20481;-57
2024/04/17 07:32:55;;;;;;;0.70;0.50;;;8.30;99.90;;;;;;5468351;26;20470;-57
2024/04/17 07:35:21;;;;;;;1.20;0.40;;;8.20;99.90;;;;;;5458549;26;20708;-57
2024/04/17 07:37:50;;;;;;;0.60;0.30;;;8.00;99.90;;;;;;5479117;26;20478;-57
2024/04/17 07:40:16;;;;;;;1.33;0.37;;;7.90;99.90;;;;;;5480054;26;20722;-56
2024/04/17 07:42:45;;;;;;;0.80;0.40;;;7.90;99.90;;;;;;5477338;26;20526;-55
2024/04/17 07:45:14;;;;;;;0.70;0.40;;;7.90;99.90;;;;;;5482387;26;20520;-53
2024/04/17 07:47:43;;;;;;;1.43;0.50;;;7.90;99.90;;;;;;5483789;26;20485;-56
2024/04/17 07:50:09;;;;;;;0.90;0.43;;;7.90;99.90;;;;;;5479332;26;20362;-53
2024/04/17 07:52:38;;;;;;;2.03;0.40;;;8.00;99.90;;;;;;5474253;26;20422;-53
2024/04/17 07:55:05;;;;;;;2.03;0.57;;;8.10;99.90;;;;;;5476095;26;20567;-52
2024/04/17 07:57:34;;;;;;;1.37;0.40;;;8.10;99.90;;;;;;5479151;26;20479;-53
2024/04/17 08:00:00;;;;;;;0.97;0.30;;;7.90;99.90;;;;;;5458270;26;20740;-51
2024/04/17 08:02:31;;;;;;;0.90;0.50;;;8.00;99.90;;;;;;5442545;26;22352;-51
2024/04/17 08:04:57;;;;;;;3.13;0.57;;;8.10;99.90;;;;;;5447568;26;20487;-54
2024/04/17 08:07:26;;;;;;;0.73;0.37;;;8.10;99.90;;;;;;5451686;26;20592;-56
2024/04/17 08:09:52;;;;;;;1.10;0.77;;;8.10;99.90;;;;;;5457796;26;20474;-54
2024/04/17 08:12:20;;;;;;;0.90;0.60;;;8.10;99.90;;;;;;5482929;26;21108;-57
2024/04/17 08:14:46;;;;;;;0.60;0.33;;;8.10;99.90;;;;;;5481899;26;20529;-57
2024/04/17 08:17:15;;;;;;;1.40;0.60;;;8.20;99.90;;;;;;5479164;26;20465;-55
2024/04/17 08:19:44;;;;;;;0.80;0.40;;;8.30;99.90;;;;;;5481968;26;20938;-57
2024/04/17 08:22:12;;;;;;;1.10;0.50;;;8.40;99.90;;;;;;5477541;26;20514;-55
2024/04/17 08:24:38;;;;;;;1.00;0.43;;;8.50;99.90;;;;;;5475270;26;20469;-57
2024/04/17 08:27:07;;;;;;;1.83;0.67;;;8.40;99.90;;;;;;5473275;26;20477;-56
2024/04/17 08:29:33;;;;;;;0.90;0.60;;;8.50;99.90;;;;;;5490832;26;20593;-57
2024/04/17 08:32:02;;;;;;;1.47;0.60;;;8.40;99.90;;;;;;5483116;26;20921;-51
2024/04/17 08:34:28;;;;;;;0.73;0.50;;;8.50;99.90;;;;;;5473896;26;20522;-55
2024/04/17 08:37:00;;;;;;;4.10;0.93;;;8.60;99.90;;;;;;5483958;26;20477;-58
2024/04/17 08:39:26;;;;;;;0.80;0.50;;;8.80;99.90;;;;;;5483416;26;20601;-57
2024/04/17 08:41:58;;;;;;;2.50;0.60;;;9.00;99.90;;;;;;5485391;26;20528;-58
2024/04/17 08:44:29;;;;;;;0.80;0.40;;;9.20;99.90;;;;;;5473895;26;20473;-55
2024/04/17 08:46:58;;;;;;;1.20;0.60;;;9.60;99.90;;;;;;5481419;26;20522;-54
2024/04/17 08:49:26;;;;;;;1.37;0.60;;;9.90;99.90;;;;;;5464200;26;20463;-56
2024/04/17 08:51:54;;;;;;;1.60;0.80;;;10.10;99.90;;;;;;5465232;26;20510;-53
2024/04/17 08:54:24;;;;;;;1.47;0.60;;;10.10;99.90;;;;;;5464394;26;20880;-55
2024/04/17 08:56:53;;;;;;;1.30;0.53;;;10.10;99.90;;;;;;5450265;26;20515;-55
2024/04/17 08:59:19;;;;;;;1.10;0.60;;;10.10;99.90;;;;;;5453898;26;21708;-52
2024/04/17 09:01:48;;;;;;;1.07;0.60;;;10.00;99.90;;;;;;5464368;26;20463;-52
2024/04/17 09:04:16;;;;;;;1.10;0.50;;;10.10;99.90;;;;;;5466107;26;21145;-54
2024/04/17 09:06:45;;;;;;;0.93;0.53;;;10.20;99.90;;;;;;5456761;26;20604;-52
2024/04/17 09:09:13;;;;;;;0.90;0.60;;;10.20;99.90;;;;;;5463614;26;20533;-53
2024/04/17 09:11:47;;;;;;;2.10;0.63;;;9.80;1.00;;;;;;5480191;26;20486;-55
2024/04/17 09:14:13;;;;;;;2.13;0.40;;;9.80;1.00;;;;;;5464518;26;20525;-54
2024/04/17 09:16:42;;;;;;;1.67;0.63;;;9.60;99.90;;;;;;5473308;26;20470;-51
2024/04/17 09:19:08;;;;;;;1.60;0.60;;;9.30;99.90;;;;;;5468309;26;20466;-52
2024/04/17 09:21:40;;;;;;;0.70;0.47;;;8.80;1.00;;;;;;5479476;26;20526;-51
2024/04/17 09:24:07;;;;;;;1.90;0.50;;;9.00;1.00;;;;;;5476365;26;20970;-55
2024/04/17 09:26:38;;;;;;;0.60;0.40;;;9.10;1.00;;;;;;5477557;26;20458;-54
2024/04/17 09:29:07;;;;;;;0.50;0.30;;;9.20;1.00;;;;;;5478822;26;20537;-52
2024/04/17 09:31:35;;;;;;;1.13;0.40;;;8.80;1.00;;;;;;5474522;26;20466;-55
2024/04/17 09:34:01;;;;;;;1.60;0.47;;;8.70;1.00;;;;;;5474610;26;20470;-50
2024/04/17 09:36:30;;;;;;;1.00;0.50;;;8.60;1.00;;;;;;5472435;26;20470;-51
2024/04/17 09:38:59;;;;;;;0.87;0.50;;;8.50;1.00;;;;;;5471639;26;20559;-51
2024/04/17 09:41:31;;;;;;;0.90;0.47;;;8.30;1.00;;;;;;5472056;26;20479;-52
2024/04/17 09:43:58;;;;;;;0.83;0.50;;;8.40;1.00;;;;;;5473355;26;20618;-54
2024/04/17 09:46:31;;;;;;;0.80;0.50;;;8.40;1.00;;;;;;5460510;26;20580;-54
2024/04/17 09:48:58;;;;;;;1.10;0.60;;;8.60;1.00;;;;;;5463870;26;20920;-53
2024/04/17 09:51:29;;;;;;;0.90;0.60;;;8.60;1.00;;;;;;5455061;26;20474;-49
2024/04/17 09:53:59;;;;;;;0.80;0.50;;;8.60;1.00;;;;;;5480764;26;20477;-54
2024/04/17 09:56:29;;;;;;;1.50;0.70;;;8.70;1.00;;;;;;5478494;26;20867;-51
2024/04/17 09:59:00;;;;;;;2.63;0.60;;;8.70;1.00;;;;;;5457457;26;20489;-54
2024/04/17 10:01:32;;;;;;;1.20;0.80;;;8.60;16.00;;;;;;5455367;26;20714;-53
2024/04/17 10:04:00;;;;;;;1.10;0.60;;;8.80;1.00;;;;;;5458051;26;21026;-54
2024/04/17 10:06:31;;;;;;;0.90;0.60;;;8.90;9.00;;;;;;5456673;26;21041;-54
2024/04/17 10:08:58;;;;;;;0.93;0.67;;;8.90;1.00;;;;;;5461004;26;20986;-55
2024/04/17 10:11:29;;;;;;;2.03;0.80;;;8.90;11.40;;;;;;5465992;26;20541;-51
2024/04/17 10:13:56;;;;;;;6.20;0.90;;;8.80;1.00;;;;;;5458209;26;20483;-52
2024/04/17 10:16:25;;;;;;;0.80;0.60;;;8.80;11.80;;;;;;5453405;26;20455;-53
2024/04/17 10:18:54;;;;;;;2.20;0.60;;;8.70;26.40;;;;;;5464239;26;20454;-53
2024/04/17 10:21:24;;;;;;;2.90;0.80;;;8.60;30.80;;;;;;5454042;26;20482;-53
2024/04/17 10:24:03;;;;;;;1.03;0.60;;;8.60;1.00;;;;;;5465566;26;20534;-52
2024/04/17 10:26:43;;;;;;;1.37;0.80;;;8.50;16.90;;;;;;5471332;26;20519;-52
2024/04/17 10:29:16;;;;;;;3.13;1.13;;;8.80;11.30;;;;;;5475610;26;20710;-51
2024/04/17 10:31:56;;;;;;;8.97;4.10;;;9.00;99.90;;;;;;5484786;26;20477;-51
2024/04/17 10:34:26;;;;;;;3.00;1.40;;;9.30;1.00;;;;;;5469946;26;20462;-54
2024/04/17 10:36:55;;;;;;;1.80;0.83;;;9.40;99.90;;;;;;5476177;26;20466;-53
2024/04/17 10:39:24;;;;;;;1.70;0.80;;;9.30;1.00;;;;;;5475496;26;20586;-51
2024/04/17 10:41:54;;;;;;;1.70;0.80;;;9.60;99.90;;;;;;5466359;26;20582;-48
2024/04/17 10:44:20;;;;;;;3.60;1.33;;;9.90;99.90;;;;;;5483905;26;20553;-52
2024/04/17 10:46:50;;;;;;;1.60;0.73;;;10.10;99.90;;;;;;5468721;26;20479;-51
2024/04/17 10:49:17;;;;;;;2.00;0.77;;;10.10;99.90;;;;;;5482472;26;20471;-52
2024/04/17 10:51:50;;;;;;;1.10;0.70;;;10.10;1.00;;;;;;5470524;26;20462;-53
2024/04/17 10:54:18;;;;;;;1.33;0.80;;;10.40;99.90;;;;;;5469776;26;20470;-52
2024/04/17 10:56:47;;;;;;;1.00;0.70;;;10.70;99.90;;;;;;5458078;26;20478;-50
2024/04/17 10:59:13;;;;;;;1.37;0.90;;;10.50;99.90;;;;;;5463452;26;20843;-51
2024/04/17 11:01:42;;;;;;;1.37;0.80;;;10.40;99.90;;;;;;5471640;26;20470;-49
2024/04/17 11:04:10;;;;;;;1.30;0.80;;;10.40;99.90;;;;;;5478127;26;20466;-52
2024/04/17 11:06:39;;;;;;;1.47;1.10;;;10.40;99.90;;;;;;5476169;26;20467;-52
2024/04/17 11:09:10;;;;;;;1.53;0.60;;;10.40;99.90;;;;;;5471644;26;20482;-53
2024/04/17 11:11:38;;;;;;;1.97;0.70;;;10.20;99.90;;;;;;5477075;26;20529;-53
2024/04/17 11:14:13;;;;;;;1.10;0.60;;;10.30;1.00;;;;;;5463757;26;20515;-54
2024/04/17 11:16:42;;;;;;;1.40;0.90;;;10.60;99.90;;;;;;5450908;26;22587;-51
2024/04/17 11:19:09;;;;;;;0.80;0.60;;;11.00;99.90;;;;;;5476820;26;20556;-50
2024/04/17 11:21:39;;;;;;;1.83;0.73;;;11.10;1.00;;;;;;5478170;26;20546;-56
2024/04/17 11:24:18;;;;;;;0.90;0.70;;;11.20;99.90;;;;;;5473722;26;20522;-55
2024/04/17 11:26:45;;;;;;;1.33;0.70;;;10.70;99.90;;;;;;5470863;26;20516;-52
2024/04/17 11:29:19;;;;;;;1.07;0.80;;;10.30;99.90;;;;;;5450824;26;21001;-55
2024/04/17 11:31:46;;;;;;;1.43;0.60;;;10.30;1.00;;;;;;5445859;26;20483;-55
2024/04/17 11:34:20;;;;;;;0.90;0.50;;;10.30;1.00;;;;;;5457040;26;20584;-54
2024/04/17 11:36:50;;;;;;;0.87;0.43;;;10.60;99.90;;;;;;5481011;26;20978;-55
2024/04/17 11:39:22;;;;;;;1.00;0.50;;;10.30;1.00;;;;;;5501580;26;20809;-55
2024/04/17 11:41:49;;;;;;;1.90;0.50;;;10.60;99.90;;;;;;5447123;26;20557;-56
2024/04/17 11:44:17;;;;;;;0.70;0.40;;;11.10;99.90;;;;;;5472070;26;20982;-56
2024/04/17 11:46:54;;;;;;;8.47;0.60;;;11.20;99.90;;;;;;5467766;26;20466;-57
2024/04/17 11:49:23;;;;;;;1.43;0.40;;;11.30;99.90;;;;;;5441101;26;20475;-60
2024/04/17 11:51:49;;;;;;;4.00;0.50;;;11.30;1.00;;;;;;5450824;26;20460;-59
2024/04/17 11:54:21;;;;;;;0.93;0.50;;;11.20;1.00;;;;;;5480121;26;20529;-60
2024/04/17 11:56:47;;;;;;;0.83;0.47;;;11.30;1.00;;;;;;5493865;26;20552;-58
2024/04/17 11:59:16;;;;;;;1.10;0.80;;;11.30;99.90;;;;;;5469637;26;20462;-59
2024/04/17 12:01:42;;;;;;;0.90;0.60;;;11.60;99.90;;;;;;5475529;26;20462;-59
2024/04/17 12:04:11;;;;;;;4.07;0.70;;;11.80;99.90;;;;;;5468653;26;20551;-59
2024/04/17 12:06:37;;;;;;;1.73;0.50;;;11.80;1.00;;;;;;5467472;26;20916;-60
2024/04/17 12:09:06;;;;;;;1.00;0.70;;;11.60;1.00;;;;;;5446120;26;20491;-59
2024/04/17 12:11:35;;;;;;;0.83;0.53;;;11.60;99.90;;;;;;5452172;26;20516;-60
2024/04/17 12:14:04;;;;;;;2.00;0.80;;;11.70;1.00;;;;;;5486378;26;20462;-59
2024/04/17 12:16:30;;;;;;;1.07;0.60;;;11.60;28.30;;;;;;5482918;26;20477;-60
2024/04/17 12:18:58;;;;;;;0.83;0.50;;;11.70;99.90;;;;;;5505712;26;20553;-59
2024/04/17 12:21:25;;;;;;;2.13;0.60;;;11.60;1.00;;;;;;5506981;26;20550;-59
2024/04/17 12:23:55;;;;;;;1.00;0.50;;;11.40;1.00;;;;;;5482682;26;20473;-58
2024/04/17 12:29:12;;;;;;;3.10;0.47;;;11.20;99.90;;;;;;5491708;26;20523;-58
2024/04/17 12:31:42;;;;;;;0.63;0.40;;;11.20;99.90;;;;;;5492682;26;20472;-57
2024/04/17 12:34:11;;;;;;;1.47;0.40;;;11.10;99.90;;;;;;5510669;26;20450;-58
2024/04/17 12:36:40;;;;;;;0.40;0.30;;;10.90;99.90;;;;;;5498862;26;20462;-59
2024/04/17 12:39:10;;;;;;;0.73;0.37;;;10.90;99.90;;;;;;5500270;26;20971;-58
2024/04/17 12:41:39;;;;;;;0.50;0.40;;;11.20;99.90;;;;;;5484668;26;20470;-58
2024/04/17 12:44:07;;;;;;;2.00;0.40;;;11.30;99.90;;;;;;5489747;26;20568;-58
2024/04/17 12:46:39;;;;;;;0.67;0.40;;;11.10;99.90;;;;;;5513074;26;21018;-58
2024/04/17 12:49:08;;;;;;;0.90;0.30;;;11.00;99.90;;;;;;5506841;26;20965;-58
2024/04/17 12:51:37;;;;;;;0.63;0.30;;;11.00;99.90;;;;;;5507918;26;20542;-58
2024/04/17 12:54:07;;;;;;;1.40;0.30;;;11.20;99.90;;;;;;5495071;26;20465;-57
2024/04/17 12:59:58;;;;;;;0.90;0.40;;;11.30;99.90;;;;;;5517860;26;20506;-58
2024/04/17 13:02:27;;;;;;;0.90;0.30;;;11.10;99.90;;;;;;5491229;26;20934;-59
2024/04/17 13:04:55;;;;;;;0.77;0.30;;;11.00;99.90;;;;;;5488156;26;20446;-59
2024/04/17 13:07:21;;;;;;;0.70;0.30;;;11.00;99.90;;;;;;5486974;26;20461;-58